Las Nutrias, New Mexico
Current Conditions -  °F | °C
As of 3:35 PM on Sunday 25 Jan 2015 (Local Time) from KE80 Reporting Station
Clear Clear  
Wind Chill: 54°   Ceiling: Unl
Heat Index: 54°   Visibility: 10mi
Dew Point: 20°   Wind: 5mph
Humidity: 26%   Direction: 30°NNE
Pressure: 30.24"   Gusts: NA
Location:  34.445°N, 106.689°W
Report Text: KE80 252235Z AUTO 03004KT 10SM CLR 12/M07 A3024 RMK AO2 T01241069
Loading
Personal Weather Stations






























Interactive Weather Map New forecast layout! Learn more

10-Day Weather Forecast

Advertisements
Track Severe Weather on mobile